Time;durP1;ratioP1;P1;durP2;ratioP2;P2;SDS_P1;SDS_P2;PMS_P1;PMS_P2;Temp;Humidity;BMP_temperature;BMP_pressure;BME280_temperature;BME280_humidity;BME280_pressure;Samples;Min_cycle;Max_cycle;Signal;HPM_P1;HPM_P2
2021/07/31 00:00:23;;;;;;;;;;;;;;;22.23;57.03;95312.81;1045072;28;703;-70
2021/07/31 00:00:59;;;;;;;;;;;;;;;22.22;56.90;95313.06;1044743;28;1868;-70
2021/07/31 00:01:30;;;;;;;;;;;;;;;22.20;57.02;95309.94;1037955;28;784;-70
2021/07/31 00:02:00;;;;;;;;;;;;;;;22.18;57.00;95309.47;1045455;28;1156;-71
2021/07/31 00:02:30;;;;;;;;;;;;;;;22.15;57.03;95316.13;1046001;28;1141;-70
2021/07/31 00:03:01;;;;;;;;;;;;;;;22.15;57.16;95307.41;1046788;28;1969;-70
2021/07/31 00:03:31;;;;;;;;;;;;;;;22.16;57.10;95307.13;1049444;28;966;-71
2021/07/31 00:04:01;;;;;;;;;;;;;;;22.17;57.23;95306.06;1045292;28;2226;-70
2021/07/31 00:04:31;;;;;;;;;;;;;;;22.16;57.21;95304.47;1040869;28;2152;-70
2021/07/31 00:05:02;;;;;;;;;;;;;;;22.15;57.23;95305.56;1043362;28;1319;-70
2021/07/31 00:05:33;;;;;;;;;;;;;;;22.15;57.07;95305.56;1045110;28;839;-70
2021/07/31 00:06:03;;;;;;;;;;;;;;;22.17;57.24;95305.28;1044839;28;1103;-71
2021/07/31 00:06:33;;;;;;;;;;;;;;;22.13;57.41;95302.44;1040035;28;1818;-71
2021/07/31 00:07:04;;;;;;;;;;;;;;;22.13;57.11;95297.16;1037053;28;1314;-70
2021/07/31 00:07:34;;;;;;;;;;;;;;;22.13;57.35;95299.81;1043741;28;2221;-70
2021/07/31 00:08:04;;;;;;;;;;;;;;;22.14;57.33;95295.28;1047210;28;1174;-70
2021/07/31 00:08:35;;;;;;;;;;;;;;;22.15;57.31;95300.28;1036973;28;1201;-71
2021/07/31 00:09:05;;;;;;;;;;;;;;;22.15;57.00;95302.13;1043399;28;1136;-71
2021/07/31 00:09:35;;;;;;;;;;;;;;;22.13;57.30;95307.72;1040718;28;2059;-71
2021/07/31 00:10:06;;;;;;;;;;;;;;;22.13;57.19;95299.00;1041428;28;1566;-71
2021/07/31 00:10:36;;;;;;;;;;;;;;;22.11;57.34;95299.31;1040722;28;1345;-71
2021/07/31 00:11:06;;;;;;;;;;;;;;;22.10;57.26;95305.66;1039634;28;1309;-71
2021/07/31 00:11:37;;;;;;;;;;;;;;;22.09;57.12;95298.78;1039716;28;2248;-71
2021/07/31 00:12:07;;;;;;;;;;;;;;;22.10;57.51;95302.22;1039759;28;1305;-71
2021/07/31 00:12:37;;;;;;;;;;;;;;;22.07;57.45;95311.50;1040721;28;1411;-71
2021/07/31 00:13:08;;;;;;;;;;;;;;;22.08;57.31;95304.38;1044002;28;1127;-71
2021/07/31 00:13:38;;;;;;;;;;;;;;;22.05;57.53;95303.09;1045406;28;757;-72
2021/07/31 00:14:08;;;;;;;;;;;;;;;22.03;57.34;95301.84;1045285;28;1159;-71
2021/07/31 00:14:39;;;;;;;;;;;;;;;22.01;57.41;95312.69;1044853;28;1174;-72
2021/07/31 00:15:09;;;;;;;;;;;;;;;22.01;57.73;95304.75;1043849;28;2004;-71
2021/07/31 00:15:39;;;;;;;;;;;;;;;22.01;57.79;95304.75;1045377;28;867;-72
2021/07/31 00:16:10;;;;;;;;;;;;;;;21.99;57.43;95306.16;1044888;28;1319;-71
2021/07/31 00:16:40;;;;;;;;;;;;;;;21.97;57.79;95314.34;1044624;28;1201;-71
2021/07/31 00:17:10;;;;;;;;;;;;;;;21.97;57.96;95305.66;1044598;28;1957;-71
2021/07/31 00:17:41;;;;;;;;;;;;;;;21.97;58.00;95308.31;1044667;28;1412;-71
2021/07/31 00:18:11;;;;;;;;;;;;;;;21.95;57.93;95308.56;1046669;28;1135;-72
2021/07/31 00:18:42;;;;;;;;;;;;;;;21.95;57.90;95310.44;1045207;28;1277;-72
2021/07/31 00:19:12;;;;;;;;;;;;;;;21.95;57.91;95313.84;1048820;28;1111;-71
2021/07/31 00:19:42;;;;;;;;;;;;;;;21.93;58.00;95316.00;1047488;28;1347;-71
2021/07/31 00:20:13;;;;;;;;;;;;;;;21.92;57.80;95311.81;1043262;28;1741;-72
2021/07/31 00:20:43;;;;;;;;;;;;;;;21.92;57.86;95317.09;1036810;28;852;-71
2021/07/31 00:21:13;;;;;;;;;;;;;;;21.93;57.80;95317.88;1035793;28;1436;-71
2021/07/31 00:21:43;;;;;;;;;;;;;;;21.93;57.96;95317.88;1036605;28;1160;-72
2021/07/31 00:22:14;;;;;;;;;;;;;;;21.93;58.02;95323.16;1040529;28;1667;-72
2021/07/31 00:22:44;;;;;;;;;;;;;;;21.92;57.94;95308.38;1036856;28;1950;-72
2021/07/31 00:23:14;;;;;;;;;;;;;;;21.91;57.81;95320.78;1040867;28;1186;-72
2021/07/31 00:23:45;;;;;;;;;;;;;;;21.90;58.00;95318.44;1041084;28;1144;-72
2021/07/31 00:24:15;;;;;;;;;;;;;;;21.89;57.97;95317.66;1049109;28;1045;-71
2021/07/31 00:24:45;;;;;;;;;;;;;;;21.86;57.79;95319.03;1044620;28;1387;-72
2021/07/31 00:25:15;;;;;;;;;;;;;;;21.85;58.18;95312.19;1039818;28;2014;-72
2021/07/31 00:25:46;;;;;;;;;;;;;;;21.83;57.95;95309.06;1044849;28;1510;-71
2021/07/31 00:26:16;;;;;;;;;;;;;;;21.84;57.93;95307.22;1047322;28;1166;-72
2021/07/31 00:26:46;;;;;;;;;;;;;;;21.83;58.06;95310.91;1045616;28;1094;-71
2021/07/31 00:27:16;;;;;;;;;;;;;;;21.80;57.91;95306.19;1046000;28;1228;-71
2021/07/31 00:27:47;;;;;;;;;;;;;;;21.80;58.30;95309.59;1045603;28;1182;-72
2021/07/31 00:28:17;;;;;;;;;;;;;;;21.78;58.20;95301.19;1049101;28;895;-71
2021/07/31 00:28:47;;;;;;;;;;;;;;;21.77;58.33;95298.84;1047112;28;1197;-72
2021/07/31 00:29:18;;;;;;;;;;;;;;;21.76;58.36;95298.06;1044913;28;1088;-72
2021/07/31 00:29:48;;;;;;;;;;;;;;;21.76;58.45;95292.03;1045049;28;1181;-72
2021/07/31 00:30:18;;;;;;;;;;;;;;;21.78;58.27;95295.91;1043972;28;2563;-72
2021/07/31 00:30:49;;;;;;;;;;;;;;;21.78;58.11;95297.78;1045185;28;1123;-72
2021/07/31 00:31:19;;;;;;;;;;;;;;;21.78;58.19;95300.44;1045076;28;1225;-71
2021/07/31 00:31:50;;;;;;;;;;;;;;;21.76;58.20;95289.41;1044969;28;1059;-72
2021/07/31 00:32:20;;;;;;;;;;;;;;;21.78;58.19;95305.72;1044795;28;1415;-72
2021/07/31 00:32:51;;;;;;;;;;;;;;;21.76;58.12;95298.06;1045346;28;1764;-72
2021/07/31 00:33:21;;;;;;;;;;;;;;;21.78;58.17;95309.13;1041090;28;1456;-72
2021/07/31 00:33:51;;;;;;;;;;;;;;;21.76;58.37;95313.13;1044938;28;1136;-72
2021/07/31 00:34:21;;;;;;;;;;;;;;;21.76;58.15;95307.88;1043259;28;1295;-72
2021/07/31 00:34:52;;;;;;;;;;;;;;;21.76;58.21;95315.78;1048382;28;1166;-72
2021/07/31 00:35:22;;;;;;;;;;;;;;;21.74;58.36;95310.78;1040781;28;2497;-71
2021/07/31 00:35:52;;;;;;;;;;;;;;;21.76;58.43;95313.13;1042667;28;1138;-72
2021/07/31 00:36:25;;;;;;;;;;;;;;;21.73;58.50;95313.69;1042828;28;2488;-72
2021/07/31 00:36:55;;;;;;;;;;;;;;;21.72;58.55;95312.16;1041688;28;2402;-72
2021/07/31 00:37:26;;;;;;;;;;;;;;;21.71;58.54;95305.31;1037416;28;1432;-72
2021/07/31 00:37:56;;;;;;;;;;;;;;;21.69;58.52;95310.09;1037993;28;2367;-72
2021/07/31 00:38:27;;;;;;;;;;;;;;;21.67;58.51;95301.69;1039886;28;808;-72
2021/07/31 00:38:58;;;;;;;;;;;;;;;21.66;58.71;95302.75;1042643;28;1219;-72
2021/07/31 00:39:28;;;;;;;;;;;;;;;21.64;58.51;95310.16;1044469;28;1186;-71
2021/07/31 00:39:58;;;;;;;;;;;;;;;21.63;58.59;95314.69;1044372;28;2113;-71
2021/07/31 00:40:29;;;;;;;;;;;;;;;21.64;58.66;95310.16;1037024;28;1587;-71
2021/07/31 00:40:59;;;;;;;;;;;;;;;21.64;58.75;95316.22;1039577;28;1269;-71
2021/07/31 00:41:29;;;;;;;;;;;;;;;21.65;58.87;95314.38;1040820;28;765;-72
2021/07/31 00:41:59;;;;;;;;;;;;;;;21.64;58.90;95310.16;1039831;28;1734;-71
2021/07/31 00:42:30;;;;;;;;;;;;;;;21.63;59.10;95311.25;1042034;28;1863;-72
2021/07/31 00:43:00;;;;;;;;;;;;;;;21.63;58.98;95304.13;1044603;28;1918;-71
2021/07/31 00:43:30;;;;;;;;;;;;;;;21.64;58.73;95294.34;1039195;28;1508;-72
2021/07/31 00:44:00;;;;;;;;;;;;;;;21.65;58.80;95301.19;1040309;28;1195;-71
2021/07/31 00:44:31;;;;;;;;;;;;;;;21.64;58.96;95300.41;1040611;28;1359;-70
2021/07/31 00:45:01;;;;;;;;;;;;;;;21.63;58.98;95293.56;1043854;28;2100;-70
2021/07/31 00:45:31;;;;;;;;;;;;;;;21.63;58.92;95292.78;1044304;28;1739;-70
2021/07/31 00:46:02;;;;;;;;;;;;;;;21.65;58.97;95293.28;1047364;28;1246;-70
2021/07/31 00:46:32;;;;;;;;;;;;;;;21.65;58.67;95285.34;1049352;28;819;-71
2021/07/31 00:47:02;;;;;;;;;;;;;;;21.65;58.82;95285.34;1048421;28;1087;-70
2021/07/31 00:47:33;;;;;;;;;;;;;;;21.63;58.88;95285.66;1048630;28;1138;-70
2021/07/31 00:48:03;;;;;;;;;;;;;;;21.63;58.85;95279.59;1041878;28;1119;-70
2021/07/31 00:48:33;;;;;;;;;;;;;;;21.61;58.85;95279.91;1040588;28;1155;-71
2021/07/31 00:49:04;;;;;;;;;;;;;;;21.62;59.01;95284.09;1040629;28;1100;-70
2021/07/31 00:49:34;;;;;;;;;;;;;;;21.61;58.89;95281.75;1040109;28;757;-70
2021/07/31 00:50:05;;;;;;;;;;;;;;;21.61;58.83;95279.09;1039578;28;2055;-70
2021/07/31 00:50:35;;;;;;;;;;;;;;;21.61;58.84;95273.84;1040419;28;1139;-70
2021/07/31 00:51:05;;;;;;;;;;;;;;;21.62;58.65;95272.75;1039156;28;2213;-70
2021/07/31 00:51:36;;;;;;;;;;;;;;;21.62;58.58;95278.00;1036162;28;1486;-71
2021/07/31 00:52:06;;;;;;;;;;;;;;;21.61;58.46;95273.84;1032208;28;1153;-70
2021/07/31 00:52:37;;;;;;;;;;;;;;;21.59;59.03;95275.97;1033632;28;1608;-71
2021/07/31 00:53:07;;;;;;;;;;;;;;;21.58;58.77;95280.47;1039891;28;1211;-70
2021/07/31 00:53:37;;;;;;;;;;;;;;;21.57;58.66;95278.91;1044780;28;1076;-70
2021/07/31 00:54:08;;;;;;;;;;;;;;;21.57;59.05;95273.63;1047881;28;1150;-71
2021/07/31 00:54:38;;;;;;;;;;;;;;;21.58;58.59;95269.13;1044518;28;1177;-70
2021/07/31 00:55:09;;;;;;;;;;;;;;;21.58;58.99;95269.13;1035978;28;2147;-70
2021/07/31 00:55:40;;;;;;;;;;;;;;;21.59;58.67;95275.97;1035387;28;1144;-71
2021/07/31 00:56:10;;;;;;;;;;;;;;;21.59;59.01;95268.06;1036209;28;1151;-71
2021/07/31 00:56:41;;;;;;;;;;;;;;;21.58;58.68;95271.75;1040869;28;788;-71
2021/07/31 00:57:11;;;;;;;;;;;;;;;21.57;58.71;95278.13;1042689;28;1143;-70
2021/07/31 00:57:42;;;;;;;;;;;;;;;21.58;58.93;95274.41;1044877;28;660;-71
2021/07/31 00:58:12;;;;;;;;;;;;;;;21.58;58.68;95274.41;1044305;28;1152;-71
2021/07/31 00:58:42;;;;;;;;;;;;;;;21.57;58.68;95273.63;1037941;28;1263;-72
2021/07/31 00:59:12;;;;;;;;;;;;;;;21.56;58.71;95276.53;1036307;28;1169;-71
2021/07/31 00:59:43;;;;;;;;;;;;;;;21.55;58.96;95282.91;1036609;28;986;-72
2021/07/31 01:00:13;;;;;;;;;;;;;;;21.54;58.78;95282.13;1037545;28;2225;-71
2021/07/31 01:00:43;;;;;;;;;;;;;;;21.54;58.68;95286.59;1036207;28;1834;-72
2021/07/31 01:01:14;;;;;;;;;;;;;;;21.54;58.72;95278.69;1036435;28;1274;-71
2021/07/31 01:01:44;;;;;;;;;;;;;;;21.54;58.32;95273.41;1034784;28;1219;-71
2021/07/31 01:02:14;;;;;;;;;;;;;;;21.53;58.53;95275.28;1039441;28;1217;-71
2021/07/31 01:02:45;;;;;;;;;;;;;;;21.53;58.50;95274.50;1040554;28;1100;-71
2021/07/31 01:03:15;;;;;;;;;;;;;;;21.53;58.47;95275.28;1044556;28;1910;-71
2021/07/31 01:03:46;;;;;;;;;;;;;;;21.51;58.69;95279.28;1043883;28;2110;-71
2021/07/31 01:04:16;;;;;;;;;;;;;;;21.50;58.70;95277.72;1042525;28;1591;-72
2021/07/31 01:04:46;;;;;;;;;;;;;;;21.49;58.38;95278.78;1040250;28;1229;-71
2021/07/31 01:05:17;;;;;;;;;;;;;;;21.49;58.48;95276.94;1043488;28;2089;-71
2021/07/31 01:05:47;;;;;;;;;;;;;;;21.47;58.46;95273.03;1035464;28;2619;-71
2021/07/31 01:06:17;;;;;;;;;;;;;;;21.47;58.74;95283.56;1032448;28;1081;-72
2021/07/31 01:06:48;;;;;;;;;;;;;;;21.45;58.49;95285.72;1036655;28;1340;-71
2021/07/31 01:07:18;;;;;;;;;;;;;;;21.45;58.85;95291.00;1035971;28;1170;-71
2021/07/31 01:07:48;;;;;;;;;;;;;;;21.45;58.55;95291.75;1032409;28;1643;-71
2021/07/31 01:08:19;;;;;;;;;;;;;;;21.45;58.74;95288.34;1029022;28;1949;-71
2021/07/31 01:08:49;;;;;;;;;;;;;;;21.45;58.64;95281.22;1029454;28;1101;-71
2021/07/31 01:09:19;;;;;;;;;;;;;;;21.47;58.59;95280.94;1036468;28;1310;-71
2021/07/31 01:09:50;;;;;;;;;;;;;;;21.48;58.89;95285.13;1037232;28;1251;-71
2021/07/31 01:10:21;;;;;;;;;;;;;;;21.48;58.56;95299.09;1039628;28;2157;-71
2021/07/31 01:10:53;;;;;;;;;;;;;;;21.50;58.58;95304.06;1038877;28;1732;-71
2021/07/31 01:11:28;;;;;;;;;;;;;;;21.49;58.63;95292.78;1045811;28;859;-71
2021/07/31 01:12:02;;;;;;;;;;;;;;;21.50;58.62;95296.16;1041517;28;1396;-71
2021/07/31 01:12:32;;;;;;;;;;;;;;;21.51;58.56;95290.63;1040463;28;772;-71
2021/07/31 01:13:03;;;;;;;;;;;;;;;21.51;58.43;95289.84;1034548;28;1268;-71
2021/07/31 01:13:33;;;;;;;;;;;;;;;21.50;58.49;95290.88;1036613;28;1224;-71
2021/07/31 01:14:03;;;;;;;;;;;;;;;21.47;58.53;95297.56;1036315;28;1203;-71
2021/07/31 01:14:34;;;;;;;;;;;;;;;21.48;58.89;95300.94;1036250;28;1227;-71
2021/07/31 01:15:05;;;;;;;;;;;;;;;21.48;58.91;95296.47;1039045;28;1399;-71
2021/07/31 01:15:35;;;;;;;;;;;;;;;21.48;58.89;95298.31;1032135;28;2126;-71
2021/07/31 01:16:09;;;;;;;;;;;;;;;21.46;58.66;95293.34;1038190;28;1334;-71
2021/07/31 01:16:56;;;;;;;;;;;;;;;21.49;58.56;95294.63;1033430;28;1832;-71
2021/07/31 01:17:46;;;;;;;;;;;;;;;21.48;58.67;95290.41;1036370;28;1381;-71
2021/07/31 01:18:37;;;;;;;;;;;;;;;21.45;58.61;95286.47;1041545;28;1104;-72
2021/07/31 01:19:09;;;;;;;;;;;;;;;21.45;58.47;95285.72;1048126;28;1084;-71
2021/07/31 01:19:39;;;;;;;;;;;;;;;21.45;58.61;95288.34;1048044;28;1134;-71
2021/07/31 01:20:10;;;;;;;;;;;;;;;21.44;58.69;95284.94;1040496;28;1475;-71
2021/07/31 01:20:40;;;;;;;;;;;;;;;21.45;58.67;95283.09;1039700;28;1892;-71
2021/07/31 01:21:12;;;;;;;;;;;;;;;21.45;58.75;95283.84;1040533;28;1088;-71
2021/07/31 01:21:43;;;;;;;;;;;;;;;21.46;58.82;95289.91;1040192;28;1210;-71
2021/07/31 01:22:13;;;;;;;;;;;;;;;21.45;58.56;95286.47;1044376;28;1734;-70
2021/07/31 01:22:44;;;;;;;;;;;;;;;21.45;58.58;95283.09;1044854;28;970;-71
2021/07/31 01:23:14;;;;;;;;;;;;;;;21.46;58.55;95284.63;1039550;28;1894;-71
2021/07/31 01:23:44;;;;;;;;;;;;;;;21.46;58.84;95287.28;1037761;28;1167;-71
2021/07/31 01:24:15;;;;;;;;;;;;;;;21.46;58.89;95292.53;1036612;28;771;-71
2021/07/31 01:24:45;;;;;;;;;;;;;;;21.46;58.70;95287.28;1040237;28;1280;-71
2021/07/31 01:25:15;;;;;;;;;;;;;;;21.45;58.46;95280.44;1038578;28;2096;-70
2021/07/31 01:25:46;;;;;;;;;;;;;;;21.44;58.76;95281.50;1040927;28;1076;-71
2021/07/31 01:26:16;;;;;;;;;;;;;;;21.43;58.56;95285.22;1047418;28;1166;-71
2021/07/31 01:26:47;;;;;;;;;;;;;;;21.43;58.92;95282.59;1044996;28;1108;-70
2021/07/31 01:27:17;;;;;;;;;;;;;;;21.44;58.64;95284.16;1042196;28;1150;-71
2021/07/31 01:27:47;;;;;;;;;;;;;;;21.44;58.59;95284.94;1041385;28;1124;-71
2021/07/31 01:28:17;;;;;;;;;;;;;;;21.45;58.63;95283.09;1049036;28;1228;-71
2021/07/31 01:28:48;;;;;;;;;;;;;;;21.46;58.55;95287.28;1046958;28;1229;-71
2021/07/31 01:29:18;;;;;;;;;;;;;;;21.46;58.84;95285.44;1044908;28;1100;-71
2021/07/31 01:29:48;;;;;;;;;;;;;;;21.47;58.68;95281.72;1044690;28;1186;-71
2021/07/31 01:30:18;;;;;;;;;;;;;;;21.46;58.68;95287.28;1043878;28;2280;-70
2021/07/31 01:30:49;;;;;;;;;;;;;;;21.45;58.73;95286.47;1044986;28;992;-71
2021/07/31 01:31:19;;;;;;;;;;;;;;;21.46;58.52;95287.28;1044586;28;1193;-70
2021/07/31 01:31:49;;;;;;;;;;;;;;;21.45;58.55;95291.75;1039561;28;1442;-71
2021/07/31 01:32:19;;;;;;;;;;;;;;;21.44;58.66;95290.22;1036482;28;1175;-71
2021/07/31 01:32:50;;;;;;;;;;;;;;;21.42;58.56;95294.19;1037979;28;1187;-71
2021/07/31 01:33:21;;;;;;;;;;;;;;;21.41;58.58;95296.03;1044094;28;816;-71
2021/07/31 01:33:51;;;;;;;;;;;;;;;21.43;58.75;95293.13;1044110;28;1937;-71
2021/07/31 01:34:21;;;;;;;;;;;;;;;21.43;58.70;95299.16;1047417;28;1280;-71
2021/07/31 01:34:51;;;;;;;;;;;;;;;21.45;58.84;95296.28;1045275;28;1115;-71
2021/07/31 01:35:22;;;;;;;;;;;;;;;21.44;58.75;95294.69;1046253;28;2132;-71
2021/07/31 01:35:53;;;;;;;;;;;;;;;21.44;58.69;95299.97;1043960;28;2121;-70
2021/07/31 01:36:23;;;;;;;;;;;;;;;21.44;58.92;95299.97;1045059;28;844;-71
2021/07/31 01:36:53;;;;;;;;;;;;;;;21.42;58.79;95296.84;1044670;28;1275;-71
2021/07/31 01:37:24;;;;;;;;;;;;;;;21.42;58.86;95297.63;1044715;28;1427;-71
2021/07/31 01:37:54;;;;;;;;;;;;;;;21.41;58.88;95295.28;1044516;28;1113;-71
2021/07/31 01:38:24;;;;;;;;;;;;;;;21.41;59.14;95300.56;1043476;28;1653;-71
2021/07/31 01:38:55;;;;;;;;;;;;;;;21.41;58.97;95303.19;1040458;28;1117;-70
2021/07/31 01:39:26;;;;;;;;;;;;;;;21.39;58.97;95298.19;1031134;28;1169;-72
2021/07/31 01:39:56;;;;;;;;;;;;;;;21.39;59.06;95297.44;1032528;28;1294;-71
2021/07/31 01:40:26;;;;;;;;;;;;;;;21.39;59.03;95297.44;1030770;28;2485;-71
2021/07/31 01:40:56;;;;;;;;;;;;;;;21.39;59.18;95303.47;1034464;28;1228;-71
2021/07/31 01:41:27;;;;;;;;;;;;;;;21.40;59.18;95293.69;1040908;28;1090;-71
2021/07/31 01:41:57;;;;;;;;;;;;;;;21.41;59.15;95300.56;1044012;28;1985;-71
2021/07/31 01:42:27;;;;;;;;;;;;;;;21.41;59.25;95301.31;1037098;28;1486;-71
2021/07/31 01:42:57;;;;;;;;;;;;;;;21.41;59.21;95295.28;1038247;28;1905;-71
2021/07/31 01:43:28;;;;;;;;;;;;;;;21.42;59.04;95296.84;1029197;28;1416;-71
2021/07/31 01:43:58;;;;;;;;;;;;;;;21.42;59.10;95302.91;1030059;28;1219;-72
2021/07/31 01:44:28;;;;;;;;;;;;;;;21.42;59.16;95304.75;1036210;28;1233;-71
2021/07/31 01:44:58;;;;;;;;;;;;;;;21.40;59.33;95302.41;1032310;28;1221;-71
2021/07/31 01:45:29;;;;;;;;;;;;;;;21.41;59.15;95292.66;1035512;28;2251;-71
2021/07/31 01:45:59;;;;;;;;;;;;;;;21.41;59.11;95295.28;1039566;28;2129;-72
2021/07/31 01:46:29;;;;;;;;;;;;;;;21.39;59.35;95294.78;1040417;28;848;-71
2021/07/31 01:46:59;;;;;;;;;;;;;;;21.39;59.06;95297.44;1044675;28;1174;-71
2021/07/31 01:47:30;;;;;;;;;;;;;;;21.40;59.40;95294.50;1045085;28;1217;-71
2021/07/31 01:48:00;;;;;;;;;;;;;;;21.39;59.38;95292.16;1044537;28;1144;-71
2021/07/31 01:48:30;;;;;;;;;;;;;;;21.41;59.23;95300.56;1044444;28;808;-71
2021/07/31 01:49:01;;;;;;;;;;;;;;;21.41;59.09;95297.91;1043631;28;1148;-71
2021/07/31 01:49:31;;;;;;;;;;;;;;;21.40;59.40;95293.69;1044470;28;1057;-71
2021/07/31 01:50:01;;;;;;;;;;;;;;;21.39;59.53;95292.91;1044927;28;1150;-71
2021/07/31 01:50:32;;;;;;;;;;;;;;;21.41;59.11;95284.72;1043543;28;2430;-71
2021/07/31 01:51:02;;;;;;;;;;;;;;;21.42;59.66;95289.72;1043649;28;1726;-71
2021/07/31 01:51:32;;;;;;;;;;;;;;;21.43;59.47;95299.16;1045028;28;787;-71
2021/07/31 01:52:03;;;;;;;;;;;;;;;21.43;59.57;95293.13;1047215;28;1131;-70
2021/07/31 01:52:33;;;;;;;;;;;;;;;21.41;59.48;95290.78;1044877;28;1290;-71
2021/07/31 01:53:03;;;;;;;;;;;;;;;21.42;59.60;95287.06;1047266;28;1119;-71
2021/07/31 01:53:34;;;;;;;;;;;;;;;21.42;59.40;95283.66;1048580;28;1028;-72
2021/07/31 01:54:04;;;;;;;;;;;;;;;21.41;59.60;95284.72;1045167;28;1233;-71
2021/07/31 01:54:34;;;;;;;;;;;;;;;21.40;59.44;95288.44;1044797;28;1314;-71
2021/07/31 01:55:05;;;;;;;;;;;;;;;21.39;59.65;95292.16;1044419;28;1356;-71
2021/07/31 01:55:36;;;;;;;;;;;;;;;21.38;59.79;95287.94;1041975;28;2178;-70
2021/07/31 01:56:06;;;;;;;;;;;;;;;21.37;59.61;95283.75;1043558;28;1104;-71
2021/07/31 01:56:36;;;;;;;;;;;;;;;21.36;59.53;95295.34;1044824;28;1096;-71
2021/07/31 01:57:06;;;;;;;;;;;;;;;21.37;59.46;95292.41;1044085;28;1134;-70
2021/07/31 01:57:37;;;;;;;;;;;;;;;21.37;59.37;95297.69;1045047;28;859;-71
2021/07/31 01:58:07;;;;;;;;;;;;;;;21.39;59.75;95294.78;1044342;28;1168;-71
2021/07/31 01:58:37;;;;;;;;;;;;;;;21.37;59.47;95295.06;1044826;28;875;-71
2021/07/31 01:59:08;;;;;;;;;;;;;;;21.37;59.84;95291.66;1044129;28;1265;-71
2021/07/31 01:59:38;;;;;;;;;;;;;;;21.36;59.64;95290.88;1043712;28;1930;-71
2021/07/31 02:00:09;;;;;;;;;;;;;;;21.36;59.71;95293.50;1048009;28;1250;-71
2021/07/31 02:00:39;;;;;;;;;;;;;;;21.36;59.83;95295.34;1044608;28;2054;-71
2021/07/31 02:01:10;;;;;;;;;;;;;;;21.35;59.98;95297.19;1047957;28;1151;-71
2021/07/31 02:01:40;;;;;;;;;;;;;;;21.35;59.98;95289.28;1044785;28;804;-71
2021/07/31 02:02:10;;;;;;;;;;;;;;;21.35;59.71;95285.91;1039943;28;1136;-71
2021/07/31 02:02:41;;;;;;;;;;;;;;;21.36;59.60;95298.00;1040697;28;899;-71
2021/07/31 02:03:11;;;;;;;;;;;;;;;21.35;59.86;95299.84;1044133;28;1913;-71
2021/07/31 02:03:41;;;;;;;;;;;;;;;21.35;59.94;95293.81;1044843;28;1161;-71
2021/07/31 02:04:12;;;;;;;;;;;;;;;21.35;59.89;95291.16;1042223;28;2557;-72
2021/07/31 02:04:42;;;;;;;;;;;;;;;21.33;59.98;95286.16;1042812;28;2578;-71
2021/07/31 02:05:12;;;;;;;;;;;;;;;21.31;59.97;95290.19;1044668;28;1335;-71
2021/07/31 02:05:42;;;;;;;;;;;;;;;21.32;60.06;95297.00;1042246;28;2494;-71
2021/07/31 02:06:13;;;;;;;;;;;;;;;21.32;60.04;95297.00;1044475;28;1208;-71
2021/07/31 02:06:43;;;;;;;;;;;;;;;21.31;59.97;95301.50;1043493;28;1750;-71
2021/07/31 02:07:13;;;;;;;;;;;;;;;21.32;60.07;95302.28;1045271;28;1303;-71
2021/07/31 02:07:44;;;;;;;;;;;;;;;21.33;60.06;95299.34;1044575;28;1068;-71
2021/07/31 02:08:14;;;;;;;;;;;;;;;21.33;60.03;95295.94;1047202;28;980;-71
2021/07/31 02:08:44;;;;;;;;;;;;;;;21.35;60.05;95301.72;1044912;28;1225;-71
2021/07/31 02:09:15;;;;;;;;;;;;;;;21.34;60.04;95300.13;1048547;28;847;-71
2021/07/31 02:09:45;;;;;;;;;;;;;;;21.34;59.85;95305.41;1048547;28;1119;-71
2021/07/31 02:10:15;;;;;;;;;;;;;;;21.34;59.87;95300.91;1044760;28;1245;-71
2021/07/31 02:10:45;;;;;;;;;;;;;;;21.35;59.82;95301.72;1041472;28;2242;-71
2021/07/31 02:11:16;;;;;;;;;;;;;;;21.32;59.95;95302.28;1039733;28;1441;-71
2021/07/31 02:11:46;;;;;;;;;;;;;;;21.31;60.14;95303.38;1042983;28;1207;-71
2021/07/31 02:12:16;;;;;;;;;;;;;;;21.29;60.29;95297.59;1040492;28;1252;-71
2021/07/31 02:12:46;;;;;;;;;;;;;;;21.26;60.10;95301.59;1036537;28;1207;-71
2021/07/31 02:13:17;;;;;;;;;;;;;;;21.26;60.05;95304.22;1044445;28;1177;-71
2021/07/31 02:13:47;;;;;;;;;;;;;;;21.26;60.11;95293.69;1044263;28;1151;-71
2021/07/31 02:14:18;;;;;;;;;;;;;;;21.29;60.14;95301.00;1044572;28;910;-71
2021/07/31 02:14:48;;;;;;;;;;;;;;;21.29;60.13;95298.34;1044701;28;1264;-71
2021/07/31 02:15:18;;;;;;;;;;;;;;;21.28;60.18;95293.38;1043656;28;1891;-71
2021/07/31 02:15:48;;;;;;;;;;;;;;;21.29;60.25;95294.97;1042107;28;2268;-70
2021/07/31 02:16:24;;;;;;;;;;;;;;;21.28;60.27;95290.75;1048420;28;1091;-71
2021/07/31 02:16:55;;;;;;;;;;;;;;;21.28;60.22;95306.56;1040506;28;1777;-71
2021/07/31 02:17:25;;;;;;;;;;;;;;;21.26;60.13;95293.69;1044138;28;1427;-71
2021/07/31 02:17:55;;;;;;;;;;;;;;;21.26;60.23;95292.88;1045553;28;1127;-71
2021/07/31 02:18:26;;;;;;;;;;;;;;;21.25;59.94;95300.00;1044418;28;729;-71
2021/07/31 02:18:56;;;;;;;;;;;;;;;21.27;60.42;95297.09;1046117;28;1199;-71
2021/07/31 02:19:28;;;;;;;;;;;;;;;21.26;60.12;95287.63;1048540;28;801;-71
2021/07/31 02:19:59;;;;;;;;;;;;;;;21.29;60.28;95292.31;1046537;28;1134;-71
2021/07/31 02:20:29;;;;;;;;;;;;;;;21.26;60.28;95293.69;1047077;28;2115;-71
2021/07/31 02:20:59;;;;;;;;;;;;;;;21.26;60.28;95291.03;1042959;28;1028;-70
2021/07/31 02:21:29;;;;;;;;;;;;;;;21.25;60.28;95297.38;1044512;28;1225;-71
2021/07/31 02:22:00;;;;;;;;;;;;;;;21.25;60.24;95288.66;1044452;28;1164;-71
2021/07/31 02:22:30;;;;;;;;;;;;;;;21.25;60.20;95291.31;1043887;28;1625;-71
2021/07/31 02:23:00;;;;;;;;;;;;;;;21.26;60.24;95292.88;1044342;28;1902;-71
2021/07/31 02:23:31;;;;;;;;;;;;;;;21.25;60.16;95288.66;1044175;28;795;-71
2021/07/31 02:24:01;;;;;;;;;;;;;;;21.27;60.12;95289.19;1043085;28;1819;-71
2021/07/31 02:24:31;;;;;;;;;;;;;;;21.27;60.45;95289.19;1042837;28;1316;-70
2021/07/31 02:25:01;;;;;;;;;;;;;;;21.26;60.37;95288.41;1048919;28;1292;-71
2021/07/31 02:25:32;;;;;;;;;;;;;;;21.25;60.29;95291.31;1046585;28;2392;-70
2021/07/31 02:26:02;;;;;;;;;;;;;;;21.26;60.24;95291.03;1044038;28;1016;-70
2021/07/31 02:26:32;;;;;;;;;;;;;;;21.26;60.27;95292.88;1045006;28;800;-70
2021/07/31 02:27:03;;;;;;;;;;;;;;;21.26;60.35;95287.63;1044218;28;1108;-71
2021/07/31 02:27:33;;;;;;;;;;;;;;;21.26;60.17;95287.63;1044465;28;1712;-71
2021/07/31 02:28:04;;;;;;;;;;;;;;;21.25;60.38;95286.81;1044129;28;1226;-71
2021/07/31 02:28:34;;;;;;;;;;;;;;;21.26;60.46;95298.16;1040525;28;769;-71
2021/07/31 02:29:05;;;;;;;;;;;;;;;21.25;60.56;95293.94;1040474;28;1136;-71
2021/07/31 02:29:35;;;;;;;;;;;;;;;21.25;60.18;95291.31;1036134;28;1403;-71
2021/07/31 02:30:06;;;;;;;;;;;;;;;21.24;60.35;95295.03;1039228;28;1156;-71
2021/07/31 02:30:36;;;;;;;;;;;;;;;21.26;60.54;95298.16;1041851;28;2114;-71
2021/07/31 02:31:06;;;;;;;;;;;;;;;21.26;60.38;95295.53;1043334;28;1089;-71
2021/07/31 02:31:36;;;;;;;;;;;;;;;21.28;60.25;95301.28;1044955;28;1078;-71
2021/07/31 02:32:07;;;;;;;;;;;;;;;21.27;60.45;95297.88;1044785;28;1198;-71
2021/07/31 02:32:37;;;;;;;;;;;;;;;21.28;60.24;95296.00;1044864;28;1264;-71
2021/07/31 02:33:08;;;;;;;;;;;;;;;21.26;60.55;95292.88;1042439;28;1696;-71
2021/07/31 02:33:38;;;;;;;;;;;;;;;21.28;60.29;95296.00;1040438;28;2367;-71
2021/07/31 02:34:10;;;;;;;;;;;;;;;21.26;60.33;95295.53;1047088;28;1159;-71
2021/07/31 02:34:40;;;;;;;;;;;;;;;21.25;60.34;95291.31;1044344;28;1246;-71
2021/07/31 02:35:10;;;;;;;;;;;;;;;21.26;60.54;95298.16;1048135;28;1231;-71
2021/07/31 02:35:41;;;;;;;;;;;;;;;21.25;60.57;95293.94;1043683;28;2512;-71
2021/07/31 02:36:11;;;;;;;;;;;;;;;21.26;60.31;95292.88;1048211;28;1120;-71
2021/07/31 02:36:41;;;;;;;;;;;;;;;21.26;60.38;95287.63;1048594;28;776;-71
2021/07/31 02:37:11;;;;;;;;;;;;;;;21.27;60.46;95284.69;1046598;28;1277;-71
2021/07/31 02:37:42;;;;;;;;;;;;;;;21.28;60.61;95290.75;1043220;28;2142;-71
2021/07/31 02:38:12;;;;;;;;;;;;;;;21.29;60.44;95292.31;1043511;28;1274;-72
2021/07/31 02:38:42;;;;;;;;;;;;;;;21.30;60.51;95289.41;1044468;28;796;-71
2021/07/31 02:39:13;;;;;;;;;;;;;;;21.30;60.38;95285.97;1042135;28;1255;-71
2021/07/31 02:39:43;;;;;;;;;;;;;;;21.30;60.29;95280.69;1044340;28;1241;-71
2021/07/31 02:40:13;;;;;;;;;;;;;;;21.31;60.42;95284.91;1044715;28;1234;-71
2021/07/31 02:40:44;;;;;;;;;;;;;;;21.32;60.34;95281.19;1043441;28;2411;-71
2021/07/31 02:41:14;;;;;;;;;;;;;;;21.32;60.50;95281.19;1040569;28;1763;-71
2021/07/31 02:41:44;;;;;;;;;;;;;;;21.32;60.35;95279.34;1040783;28;1165;-71